Time;durP1;ratioP1;P1;durP2;ratioP2;P2;SDS_P1;SDS_P2;PMS_P1;PMS_P2;Temp;Humidity;BMP_temperature;BMP_pressure;BME280_temperature;BME280_humidity;BME280_pressure;Samples;Min_cycle;Max_cycle;Signal;HPM_P1;HPM_P2
2024/01/14 00:00:32;;;;;;;47.00;29.80;;;8.80;96.70;;;;;;5057667;28;20044;-68
2024/01/14 00:03:03;;;;;;;45.80;31.13;;;8.70;96.70;;;;;;5060917;28;20156;-68
2024/01/14 00:05:34;;;;;;;46.05;30.05;;;8.70;96.70;;;;;;5062296;28;20422;-68
2024/01/14 00:08:04;;;;;;;43.33;30.85;;;8.60;96.70;;;;;;5055669;28;20180;-68
2024/01/14 00:10:34;;;;;;;43.30;30.38;;;8.70;96.70;;;;;;5071091;28;20056;-69
2024/01/14 00:13:03;;;;;;;41.65;29.95;;;8.60;96.70;;;;;;5039993;28;20060;-68
2024/01/14 00:15:33;;;;;;;40.25;29.20;;;8.60;96.70;;;;;;5034618;28;20036;-68
2024/01/14 00:18:03;;;;;;;40.13;29.42;;;8.60;96.70;;;;;;5060210;28;20063;-68
2024/01/14 00:20:31;;;;;;;40.20;29.15;;;8.60;96.70;;;;;;5044065;28;20119;-68
2024/01/14 00:23:02;;;;;;;42.95;29.83;;;8.60;96.70;;;;;;5036543;28;20055;-68
2024/01/14 00:25:31;;;;;;;42.78;29.58;;;8.60;96.70;;;;;;5055341;28;20039;-68
2024/01/14 00:28:02;;;;;;;42.70;29.33;;;8.60;96.70;;;;;;5053245;28;20109;-68
2024/01/14 00:30:32;;;;;;;37.10;27.38;;;8.60;96.70;;;;;;5072273;28;20047;-68
2024/01/14 00:33:02;;;;;;;38.80;28.90;;;8.60;96.70;;;;;;5053438;28;20052;-68
2024/01/14 00:35:31;;;;;;;37.90;28.02;;;8.60;96.70;;;;;;5071143;28;20040;-68
2024/01/14 00:38:02;;;;;;;37.28;26.63;;;8.60;96.70;;;;;;5076854;28;20043;-68
2024/01/14 00:40:31;;;;;;;35.83;27.35;;;8.60;96.70;;;;;;5053073;28;20055;-68
2024/01/14 00:42:59;;;;;;;37.50;26.65;;;8.60;96.70;;;;;;5049304;28;20044;-67
2024/01/14 00:45:31;;;;;;;36.17;26.23;;;8.60;96.70;;;;;;5053852;28;20059;-68
2024/01/14 00:48:03;;;;;;;35.15;25.70;;;8.60;96.70;;;;;;5052726;28;20044;-68
2024/01/14 00:50:32;;;;;;;35.72;26.33;;;8.60;96.70;;;;;;5053297;28;20044;-68
2024/01/14 00:53:02;;;;;;;37.35;25.58;;;8.60;96.70;;;;;;5065966;28;20044;-69
2024/01/14 00:55:30;;;;;;;32.80;24.65;;;8.60;96.70;;;;;;5052297;28;20055;-68
2024/01/14 00:58:01;;;;;;;32.67;24.48;;;8.50;96.70;;;;;;5052933;28;20665;-69
2024/01/14 01:00:31;;;;;;;34.85;23.88;;;8.50;96.70;;;;;;5053173;28;20047;-69
2024/01/14 01:03:01;;;;;;;31.90;24.45;;;8.50;96.70;;;;;;5048826;28;20559;-68
2024/01/14 01:05:29;;;;;;;32.10;23.75;;;8.50;96.70;;;;;;5053434;28;20145;-68
2024/01/14 01:08:03;;;;;;;33.38;23.48;;;8.60;96.70;;;;;;5078056;28;20584;-69
2024/01/14 01:10:32;;;;;;;31.75;24.92;;;8.60;96.70;;;;;;5071844;28;20236;-68
2024/01/14 01:12:59;;;;;;;42.90;28.42;;;8.50;96.70;;;;;;5069048;28;20047;-68
2024/01/14 01:15:32;;;;;;;35.10;25.10;;;8.50;96.70;;;;;;5052732;28;20047;-68
2024/01/14 01:18:04;;;;;;;35.50;24.90;;;8.50;96.70;;;;;;5052245;28;20052;-69
2024/01/14 01:20:33;;;;;;;34.90;23.92;;;8.50;96.70;;;;;;5064958;28;20059;-69
2024/01/14 01:23:01;;;;;;;31.40;22.73;;;8.50;96.70;;;;;;5057548;28;20440;-68
2024/01/14 01:25:30;;;;;;;29.15;22.15;;;8.40;96.70;;;;;;5061671;28;20538;-67
2024/01/14 01:27:59;;;;;;;31.08;24.35;;;8.50;96.70;;;;;;5058660;28;20051;-68
2024/01/14 01:30:27;;;;;;;31.42;23.33;;;8.50;96.70;;;;;;5052322;28;20071;-68
2024/01/14 01:32:56;;;;;;;32.45;22.77;;;8.50;96.70;;;;;;5049314;28;20056;-68
2024/01/14 01:35:27;;;;;;;30.23;22.85;;;8.50;96.70;;;;;;5052123;28;20066;-68
2024/01/14 01:37:57;;;;;;;29.80;21.70;;;8.50;96.70;;;;;;5049696;28;20651;-68
2024/01/14 01:40:26;;;;;;;30.35;21.98;;;8.60;96.70;;;;;;5087122;28;20403;-68
2024/01/14 01:42:56;;;;;;;31.38;21.05;;;8.50;96.70;;;;;;5070212;28;20047;-68
2024/01/14 01:45:24;;;;;;;32.15;21.65;;;8.60;96.70;;;;;;5058940;28;20054;-69
2024/01/14 01:47:53;;;;;;;28.80;22.08;;;8.60;96.70;;;;;;5059803;28;20044;-68
2024/01/14 01:50:22;;;;;;;29.88;21.17;;;8.60;96.70;;;;;;5054608;28;20122;-68
2024/01/14 01:52:52;;;;;;;28.48;21.40;;;8.60;96.70;;;;;;5053620;28;20048;-68
2024/01/14 01:55:21;;;;;;;28.42;21.25;;;8.60;96.70;;;;;;5072442;28;20043;-68
2024/01/14 01:57:53;;;;;;;30.75;21.85;;;8.50;96.70;;;;;;5058143;28;20047;-68
2024/01/14 02:00:22;;;;;;;29.75;21.23;;;8.50;96.70;;;;;;5063818;28;20050;-69
2024/01/14 02:02:52;;;;;;;28.20;21.17;;;8.50;96.70;;;;;;5054398;28;20052;-68
2024/01/14 02:05:22;;;;;;;28.13;20.85;;;8.50;96.70;;;;;;5071597;28;20725;-68
2024/01/14 02:07:53;;;;;;;31.58;22.13;;;8.50;96.70;;;;;;5059728;28;20051;-68
2024/01/14 02:10:22;;;;;;;25.83;20.20;;;8.40;96.70;;;;;;5058733;28;20059;-68
2024/01/14 02:12:51;;;;;;;29.65;20.85;;;8.40;96.70;;;;;;5051360;28;20052;-68
2024/01/14 02:15:19;;;;;;;28.63;20.52;;;8.40;96.70;;;;;;5054507;28;20784;-68
2024/01/14 02:17:47;;;;;;;28.55;20.38;;;8.40;96.70;;;;;;5066813;28;20048;-68
2024/01/14 02:20:18;;;;;;;27.38;20.02;;;8.40;96.70;;;;;;5067618;28;20175;-69
2024/01/14 02:22:49;;;;;;;27.52;20.00;;;8.40;96.70;;;;;;5051487;28;20186;-68
2024/01/14 02:25:22;;;;;;;26.80;19.10;;;8.40;96.70;;;;;;5064183;28;20062;-69
2024/01/14 02:27:51;;;;;;;24.98;19.05;;;8.40;96.70;;;;;;5067116;28;20043;-68
2024/01/14 02:30:23;;;;;;;25.05;18.52;;;8.40;96.70;;;;;;5053145;28;20072;-69
2024/01/14 02:32:55;;;;;;;23.23;17.38;;;8.40;96.70;;;;;;5059788;28;20048;-68
2024/01/14 02:35:25;;;;;;;27.17;18.60;;;8.30;96.70;;;;;;5052792;28;20047;-69
2024/01/14 02:37:54;;;;;;;22.95;16.80;;;8.30;96.70;;;;;;5069843;28;20070;-68
2024/01/14 02:40:25;;;;;;;23.80;17.60;;;8.40;96.70;;;;;;5054375;28;20056;-68
2024/01/14 02:42:54;;;;;;;23.60;17.27;;;8.40;96.70;;;;;;5094436;28;20048;-68
2024/01/14 02:45:24;;;;;;;26.23;18.67;;;8.40;96.70;;;;;;5069226;28;20048;-69
2024/01/14 02:47:52;;;;;;;23.95;17.45;;;8.40;96.70;;;;;;5050478;28;20051;-68
2024/01/14 02:50:22;;;;;;;27.95;18.33;;;8.30;96.70;;;;;;5055136;28;20051;-68
2024/01/14 02:52:52;;;;;;;23.77;18.05;;;8.30;96.70;;;;;;5056837;28;20128;-68
2024/01/14 02:55:21;;;;;;;26.35;18.67;;;8.30;96.70;;;;;;5051986;28;20056;-69
2024/01/14 02:57:51;;;;;;;25.85;18.90;;;8.30;96.70;;;;;;5108366;28;20152;-68
2024/01/14 03:00:23;;;;;;;22.33;16.40;;;8.30;96.70;;;;;;5076085;28;20052;-68
2024/01/14 03:02:51;;;;;;;22.65;16.88;;;8.30;96.70;;;;;;5075354;28;20058;-68
2024/01/14 03:05:21;;;;;;;24.23;17.05;;;8.30;96.70;;;;;;5048152;28;20044;-68
2024/01/14 03:07:51;;;;;;;21.35;16.33;;;8.40;96.70;;;;;;5068875;28;20054;-68
2024/01/14 03:10:22;;;;;;;22.52;16.65;;;8.40;96.70;;;;;;5067678;28;20566;-68
2024/01/14 03:12:53;;;;;;;20.75;15.70;;;8.30;96.70;;;;;;5075152;28;20109;-68
2024/01/14 03:15:21;;;;;;;21.02;15.95;;;8.40;96.70;;;;;;5083952;28;20162;-68
2024/01/14 03:17:51;;;;;;;24.25;16.20;;;8.40;96.70;;;;;;5049957;28;20557;-68
2024/01/14 03:20:20;;;;;;;25.88;17.00;;;8.40;96.70;;;;;;5053133;28;20067;-69
2024/01/14 03:22:49;;;;;;;23.38;17.27;;;8.30;96.70;;;;;;5052485;28;20056;-68
2024/01/14 03:25:17;;;;;;;25.17;17.30;;;8.30;96.70;;;;;;5059582;28;20053;-68
2024/01/14 03:27:46;;;;;;;22.90;16.67;;;8.30;96.70;;;;;;5051561;28;20056;-68
2024/01/14 03:30:17;;;;;;;22.33;17.23;;;8.30;96.70;;;;;;5067709;28;20048;-68
2024/01/14 03:32:46;;;;;;;21.38;15.80;;;8.30;96.70;;;;;;5066967;28;20081;-68
2024/01/14 03:35:16;;;;;;;24.33;16.90;;;8.30;96.70;;;;;;5062807;28;20040;-68
2024/01/14 03:37:44;;;;;;;21.65;16.98;;;8.30;96.70;;;;;;5067674;28;20074;-68
2024/01/14 03:40:14;;;;;;;23.38;17.05;;;8.30;96.70;;;;;;5055138;28;20039;-68
2024/01/14 03:42:42;;;;;;;27.17;18.48;;;8.30;96.70;;;;;;5053102;28;20050;-68
2024/01/14 03:45:12;;;;;;;26.02;19.08;;;8.30;96.70;;;;;;5048241;28;20052;-68
2024/01/14 03:47:42;;;;;;;25.92;20.10;;;8.30;96.70;;;;;;5053453;28;20059;-68
2024/01/14 03:50:11;;;;;;;31.00;22.48;;;8.30;96.70;;;;;;5067433;28;20101;-68
2024/01/14 03:52:41;;;;;;;27.45;20.13;;;8.30;96.70;;;;;;5059557;28;20139;-68
2024/01/14 03:55:10;;;;;;;28.80;20.05;;;8.20;96.70;;;;;;5068930;28;20531;-68
2024/01/14 03:57:39;;;;;;;27.02;20.65;;;8.30;96.70;;;;;;5073796;28;20047;-68
2024/01/14 04:00:10;;;;;;;30.35;22.38;;;8.40;96.70;;;;;;5071393;28;20048;-68
2024/01/14 04:02:39;;;;;;;29.23;19.83;;;8.40;96.70;;;;;;5060878;28;20101;-68
2024/01/14 04:05:12;;;;;;;26.02;19.85;;;8.40;96.70;;;;;;5070494;28;20055;-68
2024/01/14 04:07:40;;;;;;;25.73;20.27;;;8.40;96.70;;;;;;5072393;28;20142;-68
2024/01/14 04:10:09;;;;;;;29.95;22.23;;;8.40;96.70;;;;;;5071091;28;20523;-68
2024/01/14 04:12:40;;;;;;;28.77;21.75;;;8.40;96.70;;;;;;5070636;28;20062;-68
2024/01/14 04:15:09;;;;;;;26.98;20.17;;;8.30;96.70;;;;;;5055326;28;20610;-68
2024/01/14 04:17:38;;;;;;;29.55;22.08;;;8.20;96.70;;;;;;5058480;28;20039;-68
2024/01/14 04:20:09;;;;;;;32.47;22.67;;;8.20;96.70;;;;;;5054454;28;20067;-68
2024/01/14 04:22:38;;;;;;;30.80;21.92;;;8.20;96.70;;;;;;5069587;28;20083;-68
2024/01/14 04:25:07;;;;;;;30.13;22.88;;;8.20;96.70;;;;;;5069556;28;20414;-67
2024/01/14 04:27:37;;;;;;;32.10;22.23;;;8.20;96.70;;;;;;5072264;28;20052;-68
2024/01/14 04:30:07;;;;;;;30.70;22.75;;;8.10;96.70;;;;;;5071112;28;20048;-68
2024/01/14 04:32:37;;;;;;;29.67;22.20;;;8.10;96.70;;;;;;5064934;28;20044;-68
2024/01/14 04:35:07;;;;;;;30.70;23.00;;;8.10;96.70;;;;;;5053249;28;20044;-68
2024/01/14 04:37:39;;;;;;;39.05;25.55;;;7.90;96.70;;;;;;5073067;28;20044;-68
2024/01/14 04:40:08;;;;;;;31.63;23.40;;;8.00;96.70;;;;;;5092077;28;20077;-68
2024/01/14 04:42:38;;;;;;;33.53;23.08;;;8.00;96.70;;;;;;5052683;28;20046;-68
2024/01/14 04:45:07;;;;;;;35.30;23.75;;;7.90;96.70;;;;;;5049928;28;20564;-68
2024/01/14 04:47:39;;;;;;;29.92;21.85;;;7.90;96.70;;;;;;5066685;28;20056;-68
2024/01/14 04:50:10;;;;;;;29.00;22.17;;;7.90;96.70;;;;;;5073792;28;20047;-68
2024/01/14 04:52:41;;;;;;;30.23;22.13;;;7.80;96.70;;;;;;5089672;27;20071;-68
2024/01/14 04:55:12;;;;;;;32.58;23.27;;;7.80;96.70;;;;;;5068430;28;20048;-67
2024/01/14 04:57:41;;;;;;;29.85;20.85;;;7.70;96.70;;;;;;5072481;28;20551;-68
2024/01/14 05:00:12;;;;;;;31.90;22.20;;;7.80;96.70;;;;;;5056715;28;20175;-68
2024/01/14 05:02:42;;;;;;;30.00;21.70;;;7.80;96.70;;;;;;5035345;28;20455;-69
2024/01/14 05:05:14;;;;;;;28.50;21.77;;;7.80;96.70;;;;;;5055997;28;20607;-68
2024/01/14 05:07:44;;;;;;;29.48;21.00;;;7.80;96.70;;;;;;5047315;28;20097;-68
2024/01/14 05:10:13;;;;;;;32.70;22.75;;;7.80;96.70;;;;;;5071754;28;20399;-68
2024/01/14 05:12:42;;;;;;;31.30;22.35;;;7.80;96.70;;;;;;5053641;28;20170;-68
2024/01/14 05:15:11;;;;;;;30.70;22.75;;;7.80;96.70;;;;;;5065194;28;20095;-68
2024/01/14 05:17:40;;;;;;;30.98;22.17;;;7.70;96.70;;;;;;5059864;28;20044;-68
2024/01/14 05:20:12;;;;;;;30.88;22.58;;;7.70;96.70;;;;;;5058104;28;20066;-68
2024/01/14 05:22:42;;;;;;;27.77;21.45;;;7.70;96.70;;;;;;5069987;28;20581;-68
2024/01/14 05:25:12;;;;;;;32.13;22.38;;;7.70;96.70;;;;;;5051050;28;20064;-67
2024/01/14 05:27:41;;;;;;;29.70;21.77;;;7.70;96.70;;;;;;5084729;28;20036;-68
2024/01/14 05:30:10;;;;;;;31.90;22.02;;;7.70;96.70;;;;;;5051664;28;20188;-68
2024/01/14 05:32:40;;;;;;;28.08;20.77;;;7.70;96.70;;;;;;5069661;28;20040;-68
2024/01/14 05:35:10;;;;;;;28.60;22.20;;;7.70;96.70;;;;;;5051151;28;20055;-68
2024/01/14 05:37:39;;;;;;;28.88;21.85;;;7.60;96.70;;;;;;5068376;28;20047;-68
2024/01/14 05:40:10;;;;;;;27.98;22.13;;;7.70;96.70;;;;;;5053357;28;20051;-67
2024/01/14 05:42:41;;;;;;;28.77;21.42;;;7.60;96.70;;;;;;5057691;28;20048;-68
2024/01/14 05:45:10;;;;;;;33.33;22.83;;;7.60;96.70;;;;;;5054916;28;20040;-68
2024/01/14 05:47:41;;;;;;;27.30;21.60;;;7.50;96.70;;;;;;5053430;28;20040;-69
2024/01/14 05:50:10;;;;;;;31.33;22.83;;;7.50;96.70;;;;;;5068691;28;20040;-68
2024/01/14 05:52:41;;;;;;;29.13;22.80;;;7.40;96.70;;;;;;5069023;28;20137;-68
2024/01/14 05:55:11;;;;;;;30.35;21.77;;;7.40;96.70;;;;;;5053410;28;20500;-68
2024/01/14 05:57:44;;;;;;;27.67;21.52;;;7.40;96.70;;;;;;5055738;28;20139;-68
2024/01/14 06:00:14;;;;;;;26.05;21.00;;;7.30;96.70;;;;;;5051535;28;20530;-68
2024/01/14 06:02:42;;;;;;;29.70;21.23;;;7.30;96.70;;;;;;5072056;28;20051;-68
2024/01/14 06:05:11;;;;;;;28.60;20.67;;;7.30;96.70;;;;;;5054178;28;20035;-68
2024/01/14 06:07:41;;;;;;;30.40;21.25;;;7.30;96.70;;;;;;5051075;28;20048;-68
2024/01/14 06:10:10;;;;;;;27.08;20.45;;;7.30;96.70;;;;;;5046170;28;20040;-68
2024/01/14 06:12:39;;;;;;;27.80;20.90;;;7.30;96.70;;;;;;5051578;28;20659;-67
2024/01/14 06:15:10;;;;;;;30.55;21.27;;;7.30;96.70;;;;;;5054419;28;20039;-67
2024/01/14 06:17:39;;;;;;;32.85;22.38;;;7.20;96.70;;;;;;5075228;28;20065;-68
2024/01/14 06:20:09;;;;;;;30.52;21.73;;;7.20;96.70;;;;;;5054147;28;20039;-68
2024/01/14 06:22:38;;;;;;;27.38;21.17;;;7.10;96.70;;;;;;5051109;28;20048;-68
2024/01/14 06:25:07;;;;;;;29.83;21.95;;;7.10;96.70;;;;;;5070684;28;20040;-68
2024/01/14 06:27:36;;;;;;;24.00;19.40;;;7.10;96.70;;;;;;5068460;28;20105;-68
2024/01/14 06:30:07;;;;;;;29.35;21.75;;;7.10;96.70;;;;;;5052444;28;20043;-68
2024/01/14 06:32:38;;;;;;;29.73;22.33;;;7.10;96.70;;;;;;5073162;28;20100;-68
2024/01/14 06:35:08;;;;;;;26.48;20.10;;;7.10;96.70;;;;;;5069394;28;20535;-68
2024/01/14 06:37:38;;;;;;;26.85;20.13;;;7.10;96.70;;;;;;5050431;28;20109;-68
2024/01/14 06:40:07;;;;;;;27.38;20.67;;;7.10;96.70;;;;;;5068748;28;20071;-68
2024/01/14 06:42:36;;;;;;;28.13;20.70;;;7.20;96.70;;;;;;5049952;28;20043;-68
2024/01/14 06:45:06;;;;;;;26.30;20.35;;;7.10;96.70;;;;;;5050435;28;20610;-68
2024/01/14 06:47:36;;;;;;;30.45;21.70;;;7.10;96.70;;;;;;5046535;28;20052;-68
2024/01/14 06:50:08;;;;;;;27.55;21.50;;;7.00;96.70;;;;;;5055199;28;20060;-68
2024/01/14 06:52:42;;;;;;;28.67;20.15;;;7.00;96.70;;;;;;5051477;28;20048;-68
2024/01/14 06:55:15;;;;;;;28.67;20.48;;;7.10;96.70;;;;;;5067176;28;20114;-68
2024/01/14 06:57:43;;;;;;;28.70;20.58;;;7.10;96.70;;;;;;5047325;28;20059;-68
2024/01/14 07:00:15;;;;;;;27.75;21.63;;;7.10;96.70;;;;;;5072794;28;20036;-68
2024/01/14 07:02:44;;;;;;;27.23;20.60;;;7.10;96.70;;;;;;5068777;28;20463;-68
2024/01/14 07:05:15;;;;;;;27.17;19.88;;;7.10;96.70;;;;;;5052172;28;20075;-68
2024/01/14 07:07:44;;;;;;;24.75;18.77;;;7.20;96.70;;;;;;5062408;28;20048;-68
2024/01/14 07:10:15;;;;;;;25.05;18.42;;;7.20;96.70;;;;;;5077768;28;20043;-68
2024/01/14 07:12:44;;;;;;;22.33;16.88;;;7.30;96.70;;;;;;5069590;28;20055;-68
2024/01/14 07:15:12;;;;;;;24.85;16.63;;;7.40;96.70;;;;;;5050738;28;20047;-68
2024/01/14 07:17:41;;;;;;;24.42;17.65;;;7.40;96.70;;;;;;5053260;28;20108;-68
2024/01/14 07:20:27;;;;;;;24.65;17.63;;;7.40;96.70;;;;;;5055876;28;20056;-68
2024/01/14 07:22:58;;;;;;;21.05;16.30;;;7.40;96.70;;;;;;5067434;28;20086;-68
2024/01/14 07:25:48;;;;;;;20.73;15.43;;;7.50;96.70;;;;;;5074764;28;20060;-68
2024/01/14 07:28:17;;;;;;;20.77;15.90;;;7.50;96.70;;;;;;5079127;28;20040;-67
2024/01/14 07:30:48;;;;;;;21.27;15.77;;;7.50;96.70;;;;;;5071567;28;20056;-67
2024/01/14 07:33:18;;;;;;;21.35;15.00;;;7.60;96.70;;;;;;5065044;28;20621;-68
2024/01/14 07:35:49;;;;;;;20.80;14.88;;;7.60;96.70;;;;;;5062040;28;20071;-68
2024/01/14 07:38:18;;;;;;;21.13;14.13;;;7.70;96.70;;;;;;5057467;28;20140;-68
2024/01/14 07:40:46;;;;;;;19.08;12.88;;;7.70;96.70;;;;;;5093855;28;20544;-68
2024/01/14 07:43:15;;;;;;;18.70;12.85;;;7.70;96.70;;;;;;5075691;28;20543;-68
2024/01/14 07:45:44;;;;;;;14.30;11.93;;;7.80;96.70;;;;;;5071708;28;20036;-68
2024/01/14 07:48:13;;;;;;;17.13;11.27;;;7.80;96.70;;;;;;5070232;28;20094;-68
2024/01/14 07:50:41;;;;;;;16.58;11.48;;;7.80;96.70;;;;;;5047774;28;20051;-68
2024/01/14 07:53:13;;;;;;;14.65;11.52;;;7.90;96.70;;;;;;5078742;28;20059;-68
2024/01/14 07:55:42;;;;;;;16.40;11.10;;;7.90;96.70;;;;;;5057137;28;20047;-69
2024/01/14 07:58:12;;;;;;;13.45;10.20;;;7.90;96.70;;;;;;5053915;28;20040;-68
2024/01/14 08:00:42;;;;;;;14.57;10.90;;;7.90;96.70;;;;;;5070529;28;20052;-68
2024/01/14 08:03:28;;;;;;;15.38;11.07;;;8.00;96.70;;;;;;5055336;28;20056;-68
2024/01/14 08:05:57;;;;;;;20.30;11.82;;;8.00;96.70;;;;;;5054261;28;20051;-68
2024/01/14 08:08:28;;;;;;;12.27;10.05;;;8.00;96.70;;;;;;5076592;28;20059;-69
2024/01/14 08:11:01;;;;;;;13.45;10.07;;;8.00;96.70;;;;;;5066837;28;20051;-68
2024/01/14 08:13:31;;;;;;;14.27;10.38;;;8.10;96.70;;;;;;5057170;28;20105;-68
2024/01/14 08:16:00;;;;;;;13.48;10.40;;;8.10;96.70;;;;;;5070419;28;20082;-68
2024/01/14 08:18:32;;;;;;;14.85;10.88;;;8.10;96.70;;;;;;5069490;28;20109;-68
2024/01/14 08:21:01;;;;;;;16.60;11.13;;;8.10;96.70;;;;;;5072919;28;20067;-68
2024/01/14 08:23:35;;;;;;;14.45;11.30;;;8.10;96.70;;;;;;5068658;28;20063;-68
2024/01/14 08:26:04;;;;;;;13.88;11.02;;;8.10;96.70;;;;;;5049185;28;20151;-68
2024/01/14 08:28:35;;;;;;;20.02;13.90;;;8.20;96.70;;;;;;5046854;28;20053;-68
2024/01/14 08:31:05;;;;;;;16.60;11.68;;;8.20;96.70;;;;;;5082411;28;20052;-68
2024/01/14 08:33:35;;;;;;;16.45;11.60;;;8.20;96.70;;;;;;5053067;28;20056;-68
2024/01/14 08:36:07;;;;;;;14.18;11.77;;;8.20;96.70;;;;;;5049775;28;20106;-68
2024/01/14 08:38:38;;;;;;;14.52;11.38;;;8.20;96.70;;;;;;5049329;28;20136;-68
2024/01/14 08:41:07;;;;;;;16.48;11.93;;;8.20;96.70;;;;;;5062752;28;20060;-68
2024/01/14 08:43:35;;;;;;;15.95;11.85;;;8.20;96.70;;;;;;5048403;28;20052;-68
2024/01/14 08:46:04;;;;;;;18.20;13.30;;;8.20;96.70;;;;;;5049042;28;20057;-68
2024/01/14 08:48:33;;;;;;;16.58;11.27;;;8.20;96.70;;;;;;5058555;28;20068;-68
2024/01/14 08:51:03;;;;;;;13.20;11.18;;;8.20;96.70;;;;;;5050447;28;20071;-68
2024/01/14 08:53:32;;;;;;;16.58;11.80;;;8.30;96.70;;;;;;5065600;28;20063;-68
2024/01/14 08:56:03;;;;;;;16.63;11.95;;;8.30;96.70;;;;;;5065191;28;20614;-68
2024/01/14 08:58:32;;;;;;;16.95;12.05;;;8.30;96.70;;;;;;5068322;28;20052;-68
2024/01/14 09:01:01;;;;;;;16.58;11.95;;;8.30;96.70;;;;;;5049538;28;20709;-68
2024/01/14 09:03:30;;;;;;;14.73;11.93;;;8.40;96.70;;;;;;5055836;28;20580;-68
2024/01/14 09:05:59;;;;;;;19.33;13.25;;;8.40;96.70;;;;;;5049271;28;20064;-68
2024/01/14 09:08:28;;;;;;;22.70;15.13;;;8.40;96.70;;;;;;5048837;28;20044;-68
2024/01/14 09:10:57;;;;;;;42.60;25.05;;;8.40;96.70;;;;;;5048194;28;20050;-69
2024/01/14 09:13:27;;;;;;;52.20;28.88;;;8.40;96.70;;;;;;5048827;28;20157;-69
2024/01/14 09:15:56;;;;;;;53.53;28.02;;;8.40;96.70;;;;;;5042841;28;20056;-68
2024/01/14 09:18:26;;;;;;;38.88;24.02;;;8.40;96.70;;;;;;5047849;28;20044;-68
2024/01/14 09:20:55;;;;;;;47.67;24.13;;;8.40;96.70;;;;;;5064004;28;20253;-68
2024/01/14 09:23:24;;;;;;;42.67;23.27;;;8.40;96.70;;;;;;5064149;28;20041;-68
2024/01/14 09:25:52;;;;;;;27.23;18.67;;;8.40;96.70;;;;;;5047143;28;20060;-68
2024/01/14 09:28:20;;;;;;;26.65;17.63;;;8.40;96.70;;;;;;5064876;28;20040;-68
2024/01/14 09:30:51;;;;;;;25.88;15.40;;;8.40;96.70;;;;;;5064159;28;20113;-67
2024/01/14 09:33:20;;;;;;;25.17;15.38;;;8.40;96.70;;;;;;5048889;28;20056;-71
2024/01/14 09:35:50;;;;;;;23.20;14.07;;;8.40;96.70;;;;;;5063572;28;20056;-68
2024/01/14 09:38:21;;;;;;;21.73;13.60;;;8.50;96.70;;;;;;5048186;28;20114;-68
2024/01/14 09:41:04;;;;;;;18.50;13.18;;;8.50;96.70;;;;;;5065875;28;20172;-68
2024/01/14 09:43:37;;;;;;;17.95;12.88;;;8.50;96.70;;;;;;5064980;28;20770;-68
2024/01/14 09:46:08;;;;;;;19.10;12.98;;;8.50;96.70;;;;;;5071145;28;20188;-69
2024/01/14 09:48:37;;;;;;;16.67;11.98;;;8.60;96.70;;;;;;5066733;28;20596;-69
2024/01/14 09:51:08;;;;;;;18.85;12.98;;;8.60;96.70;;;;;;5073443;28;20041;-70
2024/01/14 09:53:37;;;;;;;20.73;14.50;;;8.60;96.70;;;;;;5054610;28;20050;-69
2024/01/14 09:56:09;;;;;;;17.88;13.70;;;8.70;96.70;;;;;;5071885;28;20063;-70
2024/01/14 09:58:40;;;;;;;18.40;13.18;;;8.80;96.70;;;;;;5070959;28;20045;-68
2024/01/14 10:01:12;;;;;;;16.60;13.90;;;8.80;96.70;;;;;;5083468;28;20059;-68
2024/01/14 10:03:40;;;;;;;18.20;14.35;;;8.80;96.70;;;;;;5048116;28;20056;-68
2024/01/14 10:06:10;;;;;;;18.48;13.20;;;8.90;96.70;;;;;;5047918;28;20139;-69
2024/01/14 10:08:38;;;;;;;14.88;11.90;;;8.90;96.70;;;;;;5063162;28;20053;-69
2024/01/14 10:11:07;;;;;;;16.50;12.57;;;8.90;96.70;;;;;;5062099;28;20186;-69
2024/01/14 10:13:38;;;;;;;15.60;11.77;;;9.00;96.70;;;;;;5063223;28;20056;-69
2024/01/14 10:16:11;;;;;;;14.80;11.32;;;9.00;96.70;;;;;;5056357;28;20055;-69
2024/01/14 10:18:59;;;;;;;19.08;13.88;;;9.00;96.70;;;;;;5048711;28;20072;-68
2024/01/14 10:21:28;;;;;;;18.38;13.32;;;9.10;96.70;;;;;;5064319;28;20063;-68
2024/01/14 10:24:02;;;;;;;25.80;17.08;;;9.10;96.70;;;;;;5047641;28;20608;-68
2024/01/14 10:26:32;;;;;;;30.83;21.13;;;9.10;96.70;;;;;;5064226;28;20058;-67
2024/01/14 10:29:05;;;;;;;31.90;21.38;;;9.10;96.70;;;;;;5047365;28;20066;-67
2024/01/14 10:31:36;;;;;;;29.48;18.85;;;9.10;96.70;;;;;;5056393;28;20052;-67
2024/01/14 10:34:05;;;;;;;29.85;19.25;;;9.10;96.70;;;;;;5064296;28;20052;-68
2024/01/14 10:36:37;;;;;;;28.90;17.95;;;9.10;96.70;;;;;;5049885;28;20140;-68
2024/01/14 10:39:10;;;;;;;28.83;18.77;;;9.10;96.70;;;;;;5085412;28;20045;-68
2024/01/14 10:41:41;;;;;;;27.63;19.45;;;9.20;96.70;;;;;;5062585;28;20057;-67
2024/01/14 10:44:12;;;;;;;27.13;18.77;;;9.20;96.70;;;;;;5063286;28;20052;-67
2024/01/14 10:46:45;;;;;;;31.55;20.80;;;9.20;96.70;;;;;;5047445;28;20053;-67
2024/01/14 10:49:16;;;;;;;29.35;19.00;;;9.20;96.70;;;;;;5063597;28;20436;-67
2024/01/14 10:51:51;;;;;;;27.30;19.13;;;9.20;96.70;;;;;;5061617;28;20147;-67
2024/01/14 10:54:26;;;;;;;30.90;20.38;;;9.20;96.70;;;;;;5062652;28;21095;-67
2024/01/14 10:57:08;;;;;;;30.85;19.75;;;9.30;96.70;;;;;;5059507;28;20416;-66
2024/01/14 10:59:37;;;;;;;31.05;20.63;;;9.30;96.70;;;;;;5065641;28;20090;-68
2024/01/14 11:02:17;;;;;;;31.63;20.98;;;9.30;96.70;;;;;;5067917;28;20048;-68
2024/01/14 11:04:47;;;;;;;30.83;20.48;;;9.30;96.70;;;;;;5068074;28;20582;-68
2024/01/14 11:07:15;;;;;;;30.02;18.70;;;9.40;96.70;;;;;;5068025;28;20459;-69
2024/01/14 11:09:45;;;;;;;26.92;19.52;;;9.40;96.70;;;;;;5072765;28;20804;-65
2024/01/14 11:12:19;;;;;;;29.45;19.17;;;9.50;96.70;;;;;;5048951;28;20072;-67
2024/01/14 11:15:05;;;;;;;28.27;20.35;;;9.50;96.70;;;;;;5051338;28;20052;-67
2024/01/14 11:17:47;;;;;;;29.02;19.55;;;9.60;96.70;;;;;;5069045;28;20040;-67
2024/01/14 11:20:19;;;;;;;28.20;20.45;;;9.60;96.70;;;;;;5067285;28;20056;-68
2024/01/14 11:22:51;;;;;;;30.80;21.13;;;9.70;96.70;;;;;;5068997;28;20059;-67
2024/01/14 11:25:32;;;;;;;33.17;21.58;;;9.80;96.70;;;;;;5073117;28;20063;-68
2024/01/14 11:28:02;;;;;;;30.85;20.92;;;9.80;96.70;;;;;;5088306;28;20047;-68
2024/01/14 11:30:49;;;;;;;31.67;21.83;;;9.80;96.70;;;;;;5080166;28;20051;-67
2024/01/14 11:33:40;;;;;;;33.00;22.73;;;9.80;96.70;;;;;;5069415;28;20056;-67
2024/01/14 11:36:10;;;;;;;27.88;19.45;;;9.80;96.70;;;;;;5079973;28;20571;-67
2024/01/14 11:38:58;;;;;;;30.38;19.85;;;9.90;96.70;;;;;;5069242;28;20444;-67
2024/01/14 11:41:31;;;;;;;30.52;21.20;;;9.90;96.70;;;;;;5087625;28;20054;-67
2024/01/14 11:44:05;;;;;;;34.92;22.17;;;9.90;96.70;;;;;;5088290;28;20582;-68
2024/01/14 11:46:40;;;;;;;34.28;22.02;;;9.90;96.70;;;;;;5088947;28;20050;-67
2024/01/14 11:49:18;;;;;;;29.27;20.58;;;10.00;96.70;;;;;;5069809;28;20052;-67
2024/01/14 11:51:57;;;;;;;33.03;19.77;;;10.00;96.70;;;;;;5070775;28;20133;-67
2024/01/14 11:54:28;;;;;;;26.48;16.02;;;10.00;96.70;;;;;;5087593;28;20081;-68
2024/01/14 11:56:57;;;;;;;24.92;17.17;;;10.10;96.70;;;;;;5087466;28;20483;-68
2024/01/14 11:59:28;;;;;;;25.15;15.88;;;10.10;96.70;;;;;;5088325;28;20112;-67
2024/01/14 12:02:18;;;;;;;18.65;12.77;;;10.10;96.70;;;;;;5087886;28;20055;-67
2024/01/14 12:04:51;;;;;;;20.05;14.35;;;10.10;96.70;;;;;;5087716;28;20052;-68
2024/01/14 12:07:32;;;;;;;17.15;12.68;;;10.20;96.70;;;;;;5087677;28;20424;-67
2024/01/14 12:10:04;;;;;;;16.20;11.93;;;10.20;96.70;;;;;;5086960;28;20071;-67
2024/01/14 12:12:37;;;;;;;13.95;10.55;;;10.20;96.70;;;;;;5087215;28;20175;-67
2024/01/14 12:15:09;;;;;;;15.80;11.68;;;10.20;96.70;;;;;;5088224;28;20045;-68
2024/01/14 12:17:38;;;;;;;14.63;10.88;;;10.20;96.70;;;;;;5087903;28;20067;-68
2024/01/14 12:20:11;;;;;;;14.57;11.07;;;10.20;96.70;;;;;;5086418;28;20155;-68
2024/01/14 12:22:43;;;;;;;19.98;11.68;;;10.30;96.70;;;;;;5087781;28;20044;-67
2024/01/14 12:25:11;;;;;;;18.70;13.10;;;10.40;96.70;;;;;;5068925;28;20417;-68
2024/01/14 12:27:41;;;;;;;15.85;12.20;;;10.50;96.70;;;;;;5087290;28;20048;-67
2024/01/14 12:30:12;;;;;;;17.42;13.13;;;10.50;96.70;;;;;;5088127;28;20047;-67
2024/01/14 12:32:42;;;;;;;14.70;9.82;;;10.50;96.70;;;;;;5087401;28;20094;-68
2024/01/14 12:35:13;;;;;;;11.20;7.85;;;10.40;96.70;;;;;;5087636;28;20955;-68
2024/01/14 12:37:41;;;;;;;12.77;8.02;;;10.40;96.70;;;;;;5088167;28;20051;-68
2024/01/14 12:40:11;;;;;;;13.85;9.27;;;10.40;96.70;;;;;;5087457;28;20044;-67
2024/01/14 12:42:40;;;;;;;27.50;19.23;;;10.40;96.70;;;;;;5089060;28;20048;-68
2024/01/14 12:45:14;;;;;;;24.35;15.25;;;10.40;96.70;;;;;;5086788;28;20044;-68
2024/01/14 12:47:43;;;;;;;21.27;13.38;;;10.40;96.70;;;;;;5087270;28;20097;-68
2024/01/14 12:50:15;;;;;;;69.35;37.53;;;10.40;96.70;;;;;;5087428;28;20123;-67
2024/01/14 12:52:43;;;;;;;42.65;25.88;;;10.40;96.70;;;;;;5083722;28;20048;-67